sensor_id;sensor_type;location;lat;lon;timestamp;temperature;humidity
19999;DHT22;10160;50.926;4.374;2023-05-07T00:02:24;17.60;99.90
19999;DHT22;10160;50.926;4.374;2023-05-07T00:04:51;17.70;99.90
19999;DHT22;10160;50.926;4.374;2023-05-07T00:07:17;17.70;99.90
19999;DHT22;10160;50.926;4.374;2023-05-07T00:09:43;17.80;99.90
19999;DHT22;10160;50.926;4.374;2023-05-07T00:12:09;17.90;99.90
19999;DHT22;10160;50.926;4.374;2023-05-07T00:14:35;17.90;99.90
19999;DHT22;10160;50.926;4.374;2023-05-07T00:17:01;17.80;99.90
19999;DHT22;10160;50.926;4.374;2023-05-07T00:19:26;17.80;99.90
19999;DHT22;10160;50.926;4.374;2023-05-07T00:21:52;17.80;99.90
19999;DHT22;10160;50.926;4.374;2023-05-07T00:24:19;17.80;99.90
19999;DHT22;10160;50.926;4.374;2023-05-07T00:26:45;17.90;99.90
19999;DHT22;10160;50.926;4.374;2023-05-07T00:29:10;17.70;99.90
19999;DHT22;10160;50.926;4.374;2023-05-07T00:31:36;17.70;99.90
19999;DHT22;10160;50.926;4.374;2023-05-07T00:34:02;17.80;99.90
19999;DHT22;10160;50.926;4.374;2023-05-07T00:36:28;17.90;99.90
19999;DHT22;10160;50.926;4.374;2023-05-07T00:38:56;18.00;99.90
19999;DHT22;10160;50.926;4.374;2023-05-07T00:41:22;18.00;99.90
19999;DHT22;10160;50.926;4.374;2023-05-07T00:43:48;18.00;99.90
19999;DHT22;10160;50.926;4.374;2023-05-07T00:46:13;17.90;99.90
19999;DHT22;10160;50.926;4.374;2023-05-07T00:48:41;17.90;99.90
19999;DHT22;10160;50.926;4.374;2023-05-07T00:51:06;17.90;99.90
19999;DHT22;10160;50.926;4.374;2023-05-07T00:53:32;18.00;99.90
19999;DHT22;10160;50.926;4.374;2023-05-07T00:55:58;18.10;99.90
19999;DHT22;10160;50.926;4.374;2023-05-07T00:58:24;18.10;99.90
19999;DHT22;10160;50.926;4.374;2023-05-07T01:00:50;18.10;99.90
19999;DHT22;10160;50.926;4.374;2023-05-07T01:03:16;18.00;99.90
19999;DHT22;10160;50.926;4.374;2023-05-07T01:05:42;17.70;99.90
19999;DHT22;10160;50.926;4.374;2023-05-07T01:08:10;17.50;99.90
19999;DHT22;10160;50.926;4.374;2023-05-07T01:10:36;17.50;99.90
19999;DHT22;10160;50.926;4.374;2023-05-07T01:13:02;17.50;99.90
19999;DHT22;10160;50.926;4.374;2023-05-07T01:15:28;17.50;99.90
19999;DHT22;10160;50.926;4.374;2023-05-07T01:17:54;17.70;99.90
19999;DHT22;10160;50.926;4.374;2023-05-07T01:20:22;17.80;99.90
19999;DHT22;10160;50.926;4.374;2023-05-07T01:22:49;17.80;99.90
19999;DHT22;10160;50.926;4.374;2023-05-07T01:25:15;17.80;99.90
19999;DHT22;10160;50.926;4.374;2023-05-07T01:27:41;17.80;99.90
19999;DHT22;10160;50.926;4.374;2023-05-07T01:30:07;17.80;99.90
19999;DHT22;10160;50.926;4.374;2023-05-07T01:32:51;17.80;99.90
19999;DHT22;10160;50.926;4.374;2023-05-07T01:35:22;17.80;99.90
19999;DHT22;10160;50.926;4.374;2023-05-07T01:37:50;17.80;99.90
19999;DHT22;10160;50.926;4.374;2023-05-07T01:40:16;17.80;99.90
19999;DHT22;10160;50.926;4.374;2023-05-07T01:42:43;17.80;99.90
19999;DHT22;10160;50.926;4.374;2023-05-07T01:45:10;17.70;99.90
19999;DHT22;10160;50.926;4.374;2023-05-07T01:47:36;17.50;99.90
19999;DHT22;10160;50.926;4.374;2023-05-07T01:50:04;17.50;99.90
19999;DHT22;10160;50.926;4.374;2023-05-07T01:52:31;17.50;99.90
19999;DHT22;10160;50.926;4.374;2023-05-07T01:54:57;17.50;99.90
19999;DHT22;10160;50.926;4.374;2023-05-07T01:57:22;17.50;99.90
19999;DHT22;10160;50.926;4.374;2023-05-07T01:59:48;17.50;99.90
19999;DHT22;10160;50.926;4.374;2023-05-07T02:02:14;17.40;99.90
19999;DHT22;10160;50.926;4.374;2023-05-07T02:04:39;17.40;99.90
19999;DHT22;10160;50.926;4.374;2023-05-07T02:07:05;17.40;99.90
19999;DHT22;10160;50.926;4.374;2023-05-07T02:09:31;17.40;99.90
19999;DHT22;10160;50.926;4.374;2023-05-07T02:11:56;17.30;99.90
19999;DHT22;10160;50.926;4.374;2023-05-07T02:14:22;17.30;99.90
19999;DHT22;10160;50.926;4.374;2023-05-07T02:16:48;17.30;99.90
19999;DHT22;10160;50.926;4.374;2023-05-07T02:19:13;17.30;99.90
19999;DHT22;10160;50.926;4.374;2023-05-07T02:21:39;17.20;99.90
19999;DHT22;10160;50.926;4.374;2023-05-07T02:24:05;17.20;99.90
19999;DHT22;10160;50.926;4.374;2023-05-07T02:26:31;17.20;99.90
19999;DHT22;10160;50.926;4.374;2023-05-07T02:28:56;17.20;99.90
19999;DHT22;10160;50.926;4.374;2023-05-07T02:31:22;17.20;99.90
19999;DHT22;10160;50.926;4.374;2023-05-07T02:33:47;17.10;99.90
19999;DHT22;10160;50.926;4.374;2023-05-07T02:36:13;17.10;99.90
19999;DHT22;10160;50.926;4.374;2023-05-07T02:38:39;17.00;99.90
19999;DHT22;10160;50.926;4.374;2023-05-07T02:41:05;17.00;99.90
19999;DHT22;10160;50.926;4.374;2023-05-07T02:43:30;16.90;99.90
19999;DHT22;10160;50.926;4.374;2023-05-07T02:46:04;17.00;99.90
19999;DHT22;10160;50.926;4.374;2023-05-07T02:48:30;17.10;99.90
19999;DHT22;10160;50.926;4.374;2023-05-07T02:50:55;17.10;99.90
19999;DHT22;10160;50.926;4.374;2023-05-07T02:53:21;17.00;99.90
19999;DHT22;10160;50.926;4.374;2023-05-07T02:55:47;17.00;99.90
19999;DHT22;10160;50.926;4.374;2023-05-07T02:58:12;16.90;99.90
19999;DHT22;10160;50.926;4.374;2023-05-07T03:00:38;16.90;99.90
19999;DHT22;10160;50.926;4.374;2023-05-07T03:03:04;16.90;99.90
19999;DHT22;10160;50.926;4.374;2023-05-07T03:05:29;17.00;99.90
19999;DHT22;10160;50.926;4.374;2023-05-07T03:07:55;16.90;99.90
19999;DHT22;10160;50.926;4.374;2023-05-07T03:10:21;17.00;99.90
19999;DHT22;10160;50.926;4.374;2023-05-07T03:12:46;17.00;99.90
19999;DHT22;10160;50.926;4.374;2023-05-07T03:15:12;17.10;99.90
19999;DHT22;10160;50.926;4.374;2023-05-07T03:17:38;17.20;99.90
19999;DHT22;10160;50.926;4.374;2023-05-07T03:20:04;17.10;99.90
19999;DHT22;10160;50.926;4.374;2023-05-07T03:22:30;17.20;99.90
19999;DHT22;10160;50.926;4.374;2023-05-07T03:24:56;17.20;99.90
19999;DHT22;10160;50.926;4.374;2023-05-07T03:27:22;17.20;99.90
19999;DHT22;10160;50.926;4.374;2023-05-07T03:29:47;16.90;99.90
19999;DHT22;10160;50.926;4.374;2023-05-07T03:32:13;16.70;99.90
19999;DHT22;10160;50.926;4.374;2023-05-07T03:34:39;16.70;99.90
19999;DHT22;10160;50.926;4.374;2023-05-07T03:37:05;16.80;99.90
19999;DHT22;10160;50.926;4.374;2023-05-07T03:39:31;16.70;99.90
19999;DHT22;10160;50.926;4.374;2023-05-07T03:41:58;16.50;99.90
19999;DHT22;10160;50.926;4.374;2023-05-07T03:44:24;16.20;99.90
19999;DHT22;10160;50.926;4.374;2023-05-07T03:46:49;16.20;99.90
19999;DHT22;10160;50.926;4.374;2023-05-07T03:49:15;16.30;99.90
19999;DHT22;10160;50.926;4.374;2023-05-07T03:51:41;16.40;99.90
19999;DHT22;10160;50.926;4.374;2023-05-07T03:54:07;16.50;99.90
19999;DHT22;10160;50.926;4.374;2023-05-07T03:56:32;16.70;99.90
19999;DHT22;10160;50.926;4.374;2023-05-07T03:58:58;16.80;99.90
19999;DHT22;10160;50.926;4.374;2023-05-07T04:01:24;16.90;99.90
19999;DHT22;10160;50.926;4.374;2023-05-07T04:03:49;16.90;99.90
19999;DHT22;10160;50.926;4.374;2023-05-07T04:06:16;17.00;99.90
19999;DHT22;10160;50.926;4.374;2023-05-07T04:08:42;17.00;99.90
19999;DHT22;10160;50.926;4.374;2023-05-07T04:11:08;17.10;99.90
19999;DHT22;10160;50.926;4.374;2023-05-07T04:13:34;17.20;99.90
19999;DHT22;10160;50.926;4.374;2023-05-07T04:16:01;17.20;99.90
19999;DHT22;10160;50.926;4.374;2023-05-07T04:18:28;17.10;99.90
19999;DHT22;10160;50.926;4.374;2023-05-07T04:20:54;17.10;99.90
19999;DHT22;10160;50.926;4.374;2023-05-07T04:23:20;17.00;99.90
19999;DHT22;10160;50.926;4.374;2023-05-07T04:25:45;17.20;99.90
19999;DHT22;10160;50.926;4.374;2023-05-07T04:28:11;17.30;99.90
19999;DHT22;10160;50.926;4.374;2023-05-07T04:30:38;17.20;99.90
19999;DHT22;10160;50.926;4.374;2023-05-07T04:33:03;17.10;99.90
19999;DHT22;10160;50.926;4.374;2023-05-07T04:35:29;17.20;99.90
19999;DHT22;10160;50.926;4.374;2023-05-07T04:37:55;17.20;99.90
19999;DHT22;10160;50.926;4.374;2023-05-07T04:40:21;17.30;99.90
19999;DHT22;10160;50.926;4.374;2023-05-07T04:42:46;17.20;99.90
19999;DHT22;10160;50.926;4.374;2023-05-07T04:45:12;17.20;99.90
19999;DHT22;10160;50.926;4.374;2023-05-07T04:47:38;17.30;99.90
19999;DHT22;10160;50.926;4.374;2023-05-07T04:50:05;17.10;99.90
19999;DHT22;10160;50.926;4.374;2023-05-07T04:52:31;16.70;99.90
19999;DHT22;10160;50.926;4.374;2023-05-07T04:54:59;16.70;99.90
19999;DHT22;10160;50.926;4.374;2023-05-07T04:57:25;16.60;99.90
19999;DHT22;10160;50.926;4.374;2023-05-07T04:59:52;16.70;99.90
19999;DHT22;10160;50.926;4.374;2023-05-07T05:02:17;16.80;99.90
19999;DHT22;10160;50.926;4.374;2023-05-07T05:04:43;17.00;99.90
19999;DHT22;10160;50.926;4.374;2023-05-07T05:07:09;17.00;99.90
19999;DHT22;10160;50.926;4.374;2023-05-07T05:09:34;17.20;99.90
19999;DHT22;10160;50.926;4.374;2023-05-07T05:12:00;17.30;99.90
19999;DHT22;10160;50.926;4.374;2023-05-07T05:14:26;17.40;99.90
19999;DHT22;10160;50.926;4.374;2023-05-07T05:16:51;17.40;99.90
19999;DHT22;10160;50.926;4.374;2023-05-07T05:19:17;17.50;99.90
19999;DHT22;10160;50.926;4.374;2023-05-07T05:21:43;17.50;99.90
19999;DHT22;10160;50.926;4.374;2023-05-07T05:24:09;17.60;99.90
19999;DHT22;10160;50.926;4.374;2023-05-07T05:26:34;17.60;99.90
19999;DHT22;10160;50.926;4.374;2023-05-07T05:29:00;17.70;99.90
19999;DHT22;10160;50.926;4.374;2023-05-07T05:31:26;17.80;99.90
19999;DHT22;10160;50.926;4.374;2023-05-07T05:33:52;17.90;99.90
19999;DHT22;10160;50.926;4.374;2023-05-07T05:36:17;17.90;99.90
19999;DHT22;10160;50.926;4.374;2023-05-07T05:38:43;17.90;99.90
19999;DHT22;10160;50.926;4.374;2023-05-07T05:41:09;17.90;99.90
19999;DHT22;10160;50.926;4.374;2023-05-07T05:43:35;17.90;99.90
19999;DHT22;10160;50.926;4.374;2023-05-07T05:46:01;18.00;99.90
19999;DHT22;10160;50.926;4.374;2023-05-07T05:48:29;18.10;99.90
19999;DHT22;10160;50.926;4.374;2023-05-07T05:50:54;18.00;99.90
19999;DHT22;10160;50.926;4.374;2023-05-07T05:53:20;18.10;99.90
19999;DHT22;10160;50.926;4.374;2023-05-07T05:55:46;18.10;99.90
19999;DHT22;10160;50.926;4.374;2023-05-07T05:58:11;18.20;99.90
19999;DHT22;10160;50.926;4.374;2023-05-07T06:00:37;18.10;99.90
19999;DHT22;10160;50.926;4.374;2023-05-07T06:03:03;18.30;99.90
19999;DHT22;10160;50.926;4.374;2023-05-07T06:05:29;18.00;99.90
19999;DHT22;10160;50.926;4.374;2023-05-07T06:07:54;17.70;99.90
19999;DHT22;10160;50.926;4.374;2023-05-07T06:10:20;17.60;99.90
19999;DHT22;10160;50.926;4.374;2023-05-07T06:12:45;17.60;99.90
19999;DHT22;10160;50.926;4.374;2023-05-07T06:15:11;17.40;99.90
19999;DHT22;10160;50.926;4.374;2023-05-07T06:17:37;17.20;99.90
19999;DHT22;10160;50.926;4.374;2023-05-07T06:20:03;17.20;99.90
19999;DHT22;10160;50.926;4.374;2023-05-07T06:22:29;17.10;99.90
19999;DHT22;10160;50.926;4.374;2023-05-07T06:24:54;17.10;99.90
19999;DHT22;10160;50.926;4.374;2023-05-07T06:27:20;17.10;99.90
19999;DHT22;10160;50.926;4.374;2023-05-07T06:29:47;17.20;99.90
19999;DHT22;10160;50.926;4.374;2023-05-07T06:32:13;17.10;99.90
19999;DHT22;10160;50.926;4.374;2023-05-07T06:34:40;17.10;99.90
19999;DHT22;10160;50.926;4.374;2023-05-07T06:37:06;17.20;99.90
19999;DHT22;10160;50.926;4.374;2023-05-07T06:39:32;17.10;99.90
19999;DHT22;10160;50.926;4.374;2023-05-07T06:41:58;17.00;99.90
19999;DHT22;10160;50.926;4.374;2023-05-07T06:44:23;17.10;99.90
19999;DHT22;10160;50.926;4.374;2023-05-07T06:46:49;17.20;99.90
19999;DHT22;10160;50.926;4.374;2023-05-07T06:49:15;17.20;99.90
19999;DHT22;10160;50.926;4.374;2023-05-07T06:51:41;17.10;99.90
19999;DHT22;10160;50.926;4.374;2023-05-07T06:54:07;17.00;99.90
19999;DHT22;10160;50.926;4.374;2023-05-07T06:56:33;17.20;99.90
19999;DHT22;10160;50.926;4.374;2023-05-07T06:59:00;17.20;99.90
19999;DHT22;10160;50.926;4.374;2023-05-07T07:01:26;17.30;99.90
19999;DHT22;10160;50.926;4.374;2023-05-07T07:03:52;17.40;99.90
19999;DHT22;10160;50.926;4.374;2023-05-07T07:06:17;17.30;99.90
19999;DHT22;10160;50.926;4.374;2023-05-07T07:08:43;17.30;99.90
19999;DHT22;10160;50.926;4.374;2023-05-07T07:11:10;17.40;99.90
19999;DHT22;10160;50.926;4.374;2023-05-07T07:13:36;17.50;99.90
19999;DHT22;10160;50.926;4.374;2023-05-07T07:16:01;17.40;99.90
19999;DHT22;10160;50.926;4.374;2023-05-07T07:18:28;17.50;99.90
19999;DHT22;10160;50.926;4.374;2023-05-07T07:20:54;17.50;99.90
19999;DHT22;10160;50.926;4.374;2023-05-07T07:23:20;17.50;99.90
19999;DHT22;10160;50.926;4.374;2023-05-07T07:25:46;17.40;99.90
19999;DHT22;10160;50.926;4.374;2023-05-07T07:28:11;17.30;99.90
19999;DHT22;10160;50.926;4.374;2023-05-07T07:30:37;17.40;99.90
19999;DHT22;10160;50.926;4.374;2023-05-07T07:33:03;17.60;99.90
19999;DHT22;10160;50.926;4.374;2023-05-07T07:35:30;17.60;99.90
19999;DHT22;10160;50.926;4.374;2023-05-07T07:37:56;17.70;99.90
19999;DHT22;10160;50.926;4.374;2023-05-07T07:40:22;17.70;99.90
19999;DHT22;10160;50.926;4.374;2023-05-07T07:42:48;17.70;99.90
19999;DHT22;10160;50.926;4.374;2023-05-07T07:45:14;17.70;99.90
19999;DHT22;10160;50.926;4.374;2023-05-07T07:47:40;17.80;99.90
19999;DHT22;10160;50.926;4.374;2023-05-07T07:50:07;17.80;99.90
19999;DHT22;10160;50.926;4.374;2023-05-07T07:52:33;17.80;99.90
19999;DHT22;10160;50.926;4.374;2023-05-07T07:55:00;17.70;99.90
19999;DHT22;10160;50.926;4.374;2023-05-07T07:57:25;17.90;99.90
19999;DHT22;10160;50.926;4.374;2023-05-07T07:59:51;18.00;99.90
19999;DHT22;10160;50.926;4.374;2023-05-07T08:02:17;17.90;99.90
19999;DHT22;10160;50.926;4.374;2023-05-07T08:04:43;18.00;99.90
19999;DHT22;10160;50.926;4.374;2023-05-07T08:07:12;18.10;99.90
19999;DHT22;10160;50.926;4.374;2023-05-07T08:09:38;18.10;99.90
19999;DHT22;10160;50.926;4.374;2023-05-07T08:12:05;18.10;99.90
19999;DHT22;10160;50.926;4.374;2023-05-07T08:14:31;18.10;99.90
19999;DHT22;10160;50.926;4.374;2023-05-07T08:16:57;18.10;99.90
19999;DHT22;10160;50.926;4.374;2023-05-07T08:19:23;18.00;99.90
19999;DHT22;10160;50.926;4.374;2023-05-07T08:21:49;18.00;99.90
19999;DHT22;10160;50.926;4.374;2023-05-07T08:24:15;18.00;99.90
19999;DHT22;10160;50.926;4.374;2023-05-07T08:26:41;18.10;99.90
19999;DHT22;10160;50.926;4.374;2023-05-07T08:29:07;18.10;99.90
19999;DHT22;10160;50.926;4.374;2023-05-07T08:31:32;17.90;99.90
19999;DHT22;10160;50.926;4.374;2023-05-07T08:33:59;17.90;99.90
19999;DHT22;10160;50.926;4.374;2023-05-07T08:36:25;18.00;99.90
19999;DHT22;10160;50.926;4.374;2023-05-07T08:38:51;18.00;99.90
19999;DHT22;10160;50.926;4.374;2023-05-07T08:41:17;17.90;99.90
19999;DHT22;10160;50.926;4.374;2023-05-07T08:43:47;18.10;99.90
19999;DHT22;10160;50.926;4.374;2023-05-07T08:46:17;18.30;99.90
19999;DHT22;10160;50.926;4.374;2023-05-07T08:48:44;18.40;99.90
19999;DHT22;10160;50.926;4.374;2023-05-07T08:51:15;18.50;99.90
19999;DHT22;10160;50.926;4.374;2023-05-07T08:53:41;18.20;99.90
19999;DHT22;10160;50.926;4.374;2023-05-07T08:56:11;18.00;99.90
19999;DHT22;10160;50.926;4.374;2023-05-07T08:58:37;18.20;99.90
19999;DHT22;10160;50.926;4.374;2023-05-07T09:01:07;18.10;99.90
19999;DHT22;10160;50.926;4.374;2023-05-07T09:03:33;18.10;99.90
19999;DHT22;10160;50.926;4.374;2023-05-07T09:05:59;17.90;99.90
19999;DHT22;10160;50.926;4.374;2023-05-07T09:08:26;18.00;99.90
19999;DHT22;10160;50.926;4.374;2023-05-07T09:10:53;17.80;99.90
19999;DHT22;10160;50.926;4.374;2023-05-07T09:13:19;17.70;99.90
19999;DHT22;10160;50.926;4.374;2023-05-07T09:15:45;17.80;99.90
19999;DHT22;10160;50.926;4.374;2023-05-07T09:18:11;18.00;99.90
19999;DHT22;10160;50.926;4.374;2023-05-07T09:20:37;18.20;99.90
19999;DHT22;10160;50.926;4.374;2023-05-07T09:23:03;18.40;99.90
19999;DHT22;10160;50.926;4.374;2023-05-07T09:25:34;18.60;99.90
19999;DHT22;10160;50.926;4.374;2023-05-07T09:28:01;18.70;99.90
19999;DHT22;10160;50.926;4.374;2023-05-07T09:30:33;18.60;99.90
19999;DHT22;10160;50.926;4.374;2023-05-07T09:33:00;18.50;99.90
19999;DHT22;10160;50.926;4.374;2023-05-07T09:35:26;18.50;99.90
19999;DHT22;10160;50.926;4.374;2023-05-07T09:37:57;18.70;99.90
19999;DHT22;10160;50.926;4.374;2023-05-07T09:40:24;18.80;99.90
19999;DHT22;10160;50.926;4.374;2023-05-07T09:42:50;19.00;99.90
19999;DHT22;10160;50.926;4.374;2023-05-07T09:45:30;19.00;99.90
19999;DHT22;10160;50.926;4.374;2023-05-07T09:47:58;19.10;99.90
19999;DHT22;10160;50.926;4.374;2023-05-07T09:50:35;19.20;99.90
19999;DHT22;10160;50.926;4.374;2023-05-07T09:53:03;19.20;99.90
19999;DHT22;10160;50.926;4.374;2023-05-07T09:55:29;19.20;99.90
19999;DHT22;10160;50.926;4.374;2023-05-07T09:57:55;18.90;99.90
19999;DHT22;10160;50.926;4.374;2023-05-07T10:00:22;18.50;99.90
19999;DHT22;10160;50.926;4.374;2023-05-07T10:02:52;18.30;99.90
19999;DHT22;10160;50.926;4.374;2023-05-07T10:05:18;18.40;99.90
19999;DHT22;10160;50.926;4.374;2023-05-07T10:07:46;18.50;99.90
19999;DHT22;10160;50.926;4.374;2023-05-07T10:10:12;18.60;99.90
19999;DHT22;10160;50.926;4.374;2023-05-07T10:12:40;18.20;99.90
19999;DHT22;10160;50.926;4.374;2023-05-07T10:15:10;18.30;99.90
19999;DHT22;10160;50.926;4.374;2023-05-07T10:17:38;18.00;99.90
19999;DHT22;10160;50.926;4.374;2023-05-07T10:20:05;18.00;99.90
19999;DHT22;10160;50.926;4.374;2023-05-07T10:22:41;18.00;99.90
19999;DHT22;10160;50.926;4.374;2023-05-07T10:25:19;18.10;99.90
19999;DHT22;10160;50.926;4.374;2023-05-07T10:27:48;18.50;99.90
19999;DHT22;10160;50.926;4.374;2023-05-07T10:30:31;18.70;99.90
19999;DHT22;10160;50.926;4.374;2023-05-07T10:33:03;18.70;99.90
19999;DHT22;10160;50.926;4.374;2023-05-07T10:35:36;18.60;99.90
19999;DHT22;10160;50.926;4.374;2023-05-07T10:38:03;18.30;99.90
19999;DHT22;10160;50.926;4.374;2023-05-07T10:40:30;18.40;99.90
19999;DHT22;10160;50.926;4.374;2023-05-07T10:43:01;18.20;99.90
19999;DHT22;10160;50.926;4.374;2023-05-07T10:45:28;18.50;99.90
19999;DHT22;10160;50.926;4.374;2023-05-07T10:50:36;18.80;99.90
19999;DHT22;10160;50.926;4.374;2023-05-07T10:53:21;18.70;99.90
19999;DHT22;10160;50.926;4.374;2023-05-07T10:58:46;19.10;99.90
19999;DHT22;10160;50.926;4.374;2023-05-07T11:01:12;19.10;99.90
19999;DHT22;10160;50.926;4.374;2023-05-07T11:04:12;19.20;99.90
19999;DHT22;10160;50.926;4.374;2023-05-07T11:06:39;19.40;99.90
19999;DHT22;10160;50.926;4.374;2023-05-07T11:09:05;19.20;99.90
19999;DHT22;10160;50.926;4.374;2023-05-07T11:11:50;19.20;99.90
19999;DHT22;10160;50.926;4.374;2023-05-07T11:14:46;19.10;99.90
19999;DHT22;10160;50.926;4.374;2023-05-07T11:17:12;19.10;99.90
19999;DHT22;10160;50.926;4.374;2023-05-07T11:19:56;19.10;99.90
19999;DHT22;10160;50.926;4.374;2023-05-07T11:22:36;19.10;99.90
19999;DHT22;10160;50.926;4.374;2023-05-07T11:25:06;19.30;99.90
19999;DHT22;10160;50.926;4.374;2023-05-07T11:27:32;19.20;99.90
19999;DHT22;10160;50.926;4.374;2023-05-07T11:29:58;19.30;99.90
19999;DHT22;10160;50.926;4.374;2023-05-07T11:32:28;19.20;99.90
19999;DHT22;10160;50.926;4.374;2023-05-07T11:34:55;19.10;99.90
19999;DHT22;10160;50.926;4.374;2023-05-07T11:37:22;19.20;99.90
19999;DHT22;10160;50.926;4.374;2023-05-07T11:39:48;19.20;99.90
19999;DHT22;10160;50.926;4.374;2023-05-07T11:42:34;19.50;99.90
19999;DHT22;10160;50.926;4.374;2023-05-07T11:45:00;19.80;99.90
19999;DHT22;10160;50.926;4.374;2023-05-07T11:47:29;19.90;99.90
19999;DHT22;10160;50.926;4.374;2023-05-07T11:49:55;19.80;99.90
19999;DHT22;10160;50.926;4.374;2023-05-07T11:52:23;19.80;99.90
19999;DHT22;10160;50.926;4.374;2023-05-07T11:54:54;19.80;99.90
19999;DHT22;10160;50.926;4.374;2023-05-07T11:57:21;20.00;99.90
19999;DHT22;10160;50.926;4.374;2023-05-07T11:59:47;20.10;99.90
19999;DHT22;10160;50.926;4.374;2023-05-07T12:02:14;20.20;99.90
19999;DHT22;10160;50.926;4.374;2023-05-07T12:04:40;19.90;99.90
19999;DHT22;10160;50.926;4.374;2023-05-07T12:07:14;19.70;99.90
19999;DHT22;10160;50.926;4.374;2023-05-07T12:09:41;19.90;99.90
19999;DHT22;10160;50.926;4.374;2023-05-07T12:12:07;19.70;99.90
19999;DHT22;10160;50.926;4.374;2023-05-07T12:14:40;19.90;99.90
19999;DHT22;10160;50.926;4.374;2023-05-07T12:17:11;20.10;99.90
19999;DHT22;10160;50.926;4.374;2023-05-07T12:19:38;20.10;99.90
19999;DHT22;10160;50.926;4.374;2023-05-07T12:22:05;19.90;99.90
19999;DHT22;10160;50.926;4.374;2023-05-07T12:24:47;19.50;99.90
19999;DHT22;10160;50.926;4.374;2023-05-07T12:27:14;19.50;99.90
19999;DHT22;10160;50.926;4.374;2023-05-07T12:29:44;19.40;99.90
19999;DHT22;10160;50.926;4.374;2023-05-07T12:32:18;19.60;99.90
19999;DHT22;10160;50.926;4.374;2023-05-07T12:34:45;19.70;99.90
19999;DHT22;10160;50.926;4.374;2023-05-07T12:37:11;19.80;99.90
19999;DHT22;10160;50.926;4.374;2023-05-07T12:39:38;19.70;99.90
19999;DHT22;10160;50.926;4.374;2023-05-07T12:42:04;19.60;99.90
19999;DHT22;10160;50.926;4.374;2023-05-07T12:44:31;19.20;99.90
19999;DHT22;10160;50.926;4.374;2023-05-07T12:46:58;19.00;99.90
19999;DHT22;10160;50.926;4.374;2023-05-07T12:49:26;19.20;99.90
19999;DHT22;10160;50.926;4.374;2023-05-07T12:51:53;19.30;99.90
19999;DHT22;10160;50.926;4.374;2023-05-07T12:54:32;19.60;99.90
19999;DHT22;10160;50.926;4.374;2023-05-07T12:57:02;19.60;99.90
19999;DHT22;10160;50.926;4.374;2023-05-07T12:59:40;19.70;99.90
19999;DHT22;10160;50.926;4.374;2023-05-07T13:02:06;19.70;99.90
19999;DHT22;10160;50.926;4.374;2023-05-07T13:04:33;19.70;99.90
19999;DHT22;10160;50.926;4.374;2023-05-07T13:06:59;19.90;99.90
19999;DHT22;10160;50.926;4.374;2023-05-07T13:09:25;20.00;99.90
19999;DHT22;10160;50.926;4.374;2023-05-07T13:11:51;20.10;99.90
19999;DHT22;10160;50.926;4.374;2023-05-07T13:14:16;20.40;99.90
19999;DHT22;10160;50.926;4.374;2023-05-07T13:16:42;20.60;99.90
19999;DHT22;10160;50.926;4.374;2023-05-07T13:19:08;20.50;99.90
19999;DHT22;10160;50.926;4.374;2023-05-07T13:21:33;19.80;99.90
19999;DHT22;10160;50.926;4.374;2023-05-07T13:23:59;19.80;99.90
19999;DHT22;10160;50.926;4.374;2023-05-07T13:26:25;20.20;99.90
19999;DHT22;10160;50.926;4.374;2023-05-07T13:28:54;20.40;99.90
19999;DHT22;10160;50.926;4.374;2023-05-07T13:31:20;20.50;99.90
19999;DHT22;10160;50.926;4.374;2023-05-07T13:33:46;20.60;99.90
19999;DHT22;10160;50.926;4.374;2023-05-07T13:36:12;20.70;99.90
19999;DHT22;10160;50.926;4.374;2023-05-07T13:38:38;20.80;99.90
19999;DHT22;10160;50.926;4.374;2023-05-07T13:41:04;20.70;99.90
19999;DHT22;10160;50.926;4.374;2023-05-07T13:43:30;20.70;99.90
19999;DHT22;10160;50.926;4.374;2023-05-07T13:45:57;20.60;99.90
19999;DHT22;10160;50.926;4.374;2023-05-07T13:48:22;20.80;99.90
19999;DHT22;10160;50.926;4.374;2023-05-07T13:50:48;20.80;99.90
19999;DHT22;10160;50.926;4.374;2023-05-07T13:53:14;20.40;99.90
19999;DHT22;10160;50.926;4.374;2023-05-07T13:55:43;20.60;99.90
19999;DHT22;10160;50.926;4.374;2023-05-07T13:58:09;20.30;99.90
19999;DHT22;10160;50.926;4.374;2023-05-07T14:00:35;20.50;99.90
19999;DHT22;10160;50.926;4.374;2023-05-07T14:03:00;20.40;99.90
19999;DHT22;10160;50.926;4.374;2023-05-07T14:05:26;20.50;99.90
19999;DHT22;10160;50.926;4.374;2023-05-07T14:07:56;20.60;99.90
19999;DHT22;10160;50.926;4.374;2023-05-07T14:10:22;20.60;99.90
19999;DHT22;10160;50.926;4.374;2023-05-07T14:12:48;20.70;99.90
19999;DHT22;10160;50.926;4.374;2023-05-07T14:15:14;20.70;99.90
19999;DHT22;10160;50.926;4.374;2023-05-07T14:17:40;20.60;99.90
19999;DHT22;10160;50.926;4.374;2023-05-07T14:20:06;20.70;99.90
19999;DHT22;10160;50.926;4.374;2023-05-07T14:22:32;20.50;99.90
19999;DHT22;10160;50.926;4.374;2023-05-07T14:24:58;20.40;99.90
19999;DHT22;10160;50.926;4.374;2023-05-07T14:27:23;20.50;99.90
19999;DHT22;10160;50.926;4.374;2023-05-07T14:29:49;20.50;99.90
19999;DHT22;10160;50.926;4.374;2023-05-07T14:32:19;20.70;99.90
19999;DHT22;10160;50.926;4.374;2023-05-07T14:34:45;20.80;99.90
19999;DHT22;10160;50.926;4.374;2023-05-07T14:37:11;20.80;99.90
19999;DHT22;10160;50.926;4.374;2023-05-07T14:39:37;20.70;99.90
19999;DHT22;10160;50.926;4.374;2023-05-07T14:42:02;20.60;99.90
19999;DHT22;10160;50.926;4.374;2023-05-07T14:44:28;20.60;99.90
19999;DHT22;10160;50.926;4.374;2023-05-07T14:46:54;20.40;99.90
19999;DHT22;10160;50.926;4.374;2023-05-07T14:49:20;20.50;99.90
19999;DHT22;10160;50.926;4.374;2023-05-07T14:51:46;20.50;99.90
19999;DHT22;10160;50.926;4.374;2023-05-07T14:54:13;20.30;99.90
19999;DHT22;10160;50.926;4.374;2023-05-07T14:56:40;20.30;99.90
19999;DHT22;10160;50.926;4.374;2023-05-07T14:59:05;20.40;99.90
19999;DHT22;10160;50.926;4.374;2023-05-07T15:01:32;20.40;99.90
19999;DHT22;10160;50.926;4.374;2023-05-07T15:03:57;20.40;99.90
19999;DHT22;10160;50.926;4.374;2023-05-07T15:06:23;20.70;99.90
19999;DHT22;10160;50.926;4.374;2023-05-07T15:08:49;20.60;99.90
19999;DHT22;10160;50.926;4.374;2023-05-07T15:11:15;20.60;99.90
19999;DHT22;10160;50.926;4.374;2023-05-07T15:13:42;20.50;99.90
19999;DHT22;10160;50.926;4.374;2023-05-07T15:16:07;20.50;99.90
19999;DHT22;10160;50.926;4.374;2023-05-07T15:18:33;20.40;99.90
19999;DHT22;10160;50.926;4.374;2023-05-07T15:20:59;20.30;99.90
19999;DHT22;10160;50.926;4.374;2023-05-07T15:23:25;20.30;99.90
19999;DHT22;10160;50.926;4.374;2023-05-07T15:25:52;20.30;99.90
19999;DHT22;10160;50.926;4.374;2023-05-07T15:28:17;20.40;99.90
19999;DHT22;10160;50.926;4.374;2023-05-07T15:30:43;20.70;99.90
19999;DHT22;10160;50.926;4.374;2023-05-07T15:33:09;20.60;99.90
19999;DHT22;10160;50.926;4.374;2023-05-07T15:35:35;20.50;99.90